createdAt,value
2023-02-05T00:44:08.160Z,56.56
2023-02-05T00:45:08.271Z,56.72
2023-02-05T00:46:08.442Z,56.89
2023-02-05T00:47:09.455Z,57.26
2023-02-05T00:48:08.504Z,56.88
2023-02-05T00:49:08.561Z,56.95
2023-02-05T00:50:08.734Z,56.79
2023-02-05T00:51:08.664Z,56.87
2023-02-05T00:52:08.732Z,57.11
2023-02-05T00:53:08.766Z,57.05
2023-02-05T00:54:08.810Z,56.98
2023-02-05T00:55:08.869Z,57.05
2023-02-05T00:56:08.951Z,56.94
2023-02-05T00:57:08.975Z,56.83
2023-02-05T00:58:09.018Z,56.95
2023-02-05T00:59:09.083Z,57.23
2023-02-05T01:00:09.125Z,57.09
2023-02-05T01:01:09.235Z,56.92
2023-02-05T01:02:09.255Z,56.85
2023-02-05T01:03:09.306Z,56.67
2023-02-05T01:04:09.390Z,56.52
2023-02-05T01:05:09.466Z,56.28
2023-02-05T01:06:09.569Z,56.07
2023-02-05T01:07:09.629Z,56.05
2023-02-05T01:08:09.881Z,55.97
2023-02-05T01:09:09.805Z,56.15
2023-02-05T01:10:09.895Z,56.08
2023-02-05T01:11:09.990Z,56.06
2023-02-05T01:12:10.075Z,55.93
2023-02-05T01:13:10.173Z,55.99
2023-02-05T02:23:18.138Z,54.15
2023-02-05T02:27:18.630Z,54.33
2023-02-05T03:50:28.237Z,54.07
2023-02-05T03:51:28.280Z,53.74
2023-02-05T03:52:28.355Z,53.45
2023-02-05T05:43:38.160Z,51.68
2023-02-05T05:44:38.249Z,51.67
2023-02-05T05:45:38.333Z,51.49
2023-02-05T05:46:38.420Z,51.64
2023-02-05T05:47:39.273Z,51.95
2023-02-05T05:48:38.609Z,52.10
2023-02-05T05:49:38.710Z,52.23
2023-02-05T05:50:38.791Z,52.15
2023-02-05T05:51:38.896Z,51.63
2023-02-05T05:52:38.975Z,51.87
2023-02-05T05:53:39.097Z,51.92
2023-02-05T05:54:39.181Z,51.95
2023-02-05T05:55:39.279Z,52.05
2023-02-05T05:56:39.383Z,51.98
2023-02-05T05:57:39.470Z,51.90
2023-02-05T05:58:39.554Z,51.83
2023-02-05T05:59:39.654Z,51.91
2023-02-05T06:00:39.750Z,51.79
2023-02-05T06:01:39.875Z,51.77
2023-02-05T06:02:40.025Z,52.02
2023-02-05T06:03:40.071Z,52.04
2023-02-05T06:04:40.240Z,51.98
2023-02-05T06:05:40.260Z,51.94
2023-02-05T06:06:40.349Z,51.55
2023-02-05T06:07:40.458Z,52.08
2023-02-05T06:08:40.570Z,52.38
2023-02-05T06:09:40.635Z,52.49
2023-02-05T06:10:40.711Z,52.46
2023-02-05T06:11:40.811Z,52.26
2023-02-05T06:12:40.906Z,52.24
2023-02-05T06:13:41.003Z,52.47
2023-02-05T06:14:41.098Z,52.43
2023-02-05T06:15:41.220Z,52.62
2023-02-05T06:16:41.260Z,52.78
2023-02-05T06:17:41.362Z,52.85
2023-02-05T06:18:41.466Z,52.84
2023-02-05T06:19:41.552Z,52.59
2023-02-05T06:20:41.653Z,52.46
2023-02-05T06:21:41.753Z,52.66
2023-02-05T06:22:41.845Z,52.43
2023-02-05T06:23:41.954Z,52.42
2023-02-05T06:24:42.037Z,52.22
2023-02-05T06:25:42.133Z,52.05
2023-02-05T06:26:42.220Z,51.88
2023-02-05T06:27:42.358Z,51.78
2023-02-05T06:28:42.433Z,51.72
2023-02-05T06:29:42.586Z,51.61
2023-02-05T06:30:42.750Z,51.67
2023-02-05T06:31:42.820Z,51.79
2023-02-05T06:32:42.820Z,51.80
2023-02-05T06:33:42.923Z,51.94
2023-02-05T06:34:43.018Z,52.05
2023-02-05T06:35:43.115Z,51.99
2023-02-05T06:36:43.228Z,51.79
2023-02-05T06:37:47.517Z,51.67
2023-02-05T06:38:43.423Z,51.74
2023-02-05T06:39:43.494Z,51.78
2023-02-05T06:40:43.582Z,51.64
2023-02-05T06:41:43.648Z,51.34
2023-02-05T06:42:43.735Z,51.42
2023-02-05T06:43:43.809Z,51.37
2023-02-05T06:44:43.891Z,51.38
2023-02-05T06:45:43.962Z,51.22
2023-02-05T06:46:44.089Z,51.41
2023-02-05T06:47:44.122Z,51.31
2023-02-05T06:48:44.199Z,51.12
2023-02-05T06:49:44.273Z,50.94
2023-02-05T06:50:44.348Z,51.07
2023-02-05T06:51:44.431Z,51.01
2023-02-05T06:52:44.513Z,51.03
2023-02-05T06:53:44.592Z,51.08
2023-02-05T06:54:44.683Z,51.33
2023-02-05T06:55:44.752Z,51.46
2023-02-05T06:56:44.853Z,51.46
2023-02-05T06:57:44.940Z,51.06
2023-02-05T06:58:44.994Z,50.96
2023-02-05T06:59:45.085Z,50.87
2023-02-05T07:00:45.148Z,51.44
2023-02-05T07:01:45.273Z,51.49
2023-02-05T07:02:45.361Z,51.68
2023-02-05T07:03:45.409Z,51.68
2023-02-05T07:04:45.496Z,51.79
2023-02-05T07:05:45.573Z,51.80
2023-02-05T07:06:45.663Z,51.74
2023-02-05T07:07:45.747Z,51.65
2023-02-05T07:08:45.815Z,52.04
2023-02-05T07:09:45.910Z,51.91
2023-02-05T07:10:45.993Z,51.96
2023-02-05T07:11:46.077Z,52.02
2023-02-05T07:12:46.168Z,52.04
2023-02-05T07:13:46.261Z,51.94
2023-02-05T07:14:46.348Z,51.87
2023-02-05T07:15:46.455Z,51.60
2023-02-05T07:16:46.491Z,51.73
2023-02-05T07:17:46.587Z,51.67
2023-02-05T07:18:46.667Z,51.68
2023-02-05T07:19:46.736Z,52.11
2023-02-05T07:20:46.826Z,51.91
2023-02-05T07:21:46.900Z,51.66
2023-02-05T07:22:46.987Z,51.70
2023-02-05T07:23:47.065Z,51.91
2023-02-05T07:24:47.134Z,52.35
2023-02-05T07:25:47.217Z,52.50
2023-02-05T07:26:47.302Z,52.42
2023-02-05T07:27:47.383Z,52.31
2023-02-05T07:28:47.463Z,52.01
2023-02-05T07:29:47.533Z,51.62
2023-02-05T07:30:47.672Z,51.65
2023-02-05T07:31:47.722Z,51.60
2023-02-05T07:32:47.790Z,51.77
2023-02-05T07:33:47.842Z,51.84
2023-02-05T07:34:47.936Z,52.26
2023-02-05T07:35:48.005Z,52.48
2023-02-05T07:36:48.091Z,52.70
2023-02-05T07:37:48.159Z,52.65
2023-02-05T07:38:48.241Z,52.61
2023-02-05T07:39:48.319Z,52.60
2023-02-05T07:40:48.409Z,52.33
2023-02-05T07:41:48.475Z,52.36
2023-02-05T07:42:48.562Z,52.52
2023-02-05T07:43:48.636Z,52.53
2023-02-05T07:44:48.718Z,52.43
2023-02-05T07:45:48.784Z,52.49
2023-02-05T07:46:48.948Z,52.29
2023-02-05T07:47:48.947Z,52.27
2023-02-05T07:48:49.051Z,52.31
2023-02-05T07:49:49.151Z,52.37
2023-02-05T07:50:49.767Z,52.57
2023-02-05T07:51:49.303Z,52.57
2023-02-05T07:52:49.389Z,52.72
2023-02-05T07:53:49.460Z,52.78
2023-02-05T07:54:49.561Z,52.57
2023-02-05T07:55:49.630Z,52.37
2023-02-05T07:56:49.730Z,52.16
2023-02-05T07:57:49.825Z,52.16
2023-02-05T07:58:49.931Z,52.05
2023-02-05T07:59:50.031Z,52.09
2023-02-05T08:00:50.192Z,52.40
2023-02-05T08:01:50.203Z,52.65
2023-02-05T08:02:50.291Z,52.89
2023-02-05T08:03:50.435Z,52.84
2023-02-05T08:04:50.459Z,52.90
2023-02-05T08:05:50.549Z,52.67
2023-02-05T08:06:50.619Z,52.56
2023-02-05T08:07:50.701Z,52.92
2023-02-05T08:08:50.798Z,52.82
2023-02-05T08:09:50.882Z,52.87
2023-02-05T08:10:50.969Z,53.27
2023-02-05T08:11:51.089Z,54.36
2023-02-05T08:12:51.211Z,54.26
2023-02-05T08:13:51.422Z,54.29
2023-02-05T08:39:53.822Z,52.92
2023-02-05T09:18:58.160Z,49.84
2023-02-05T09:19:58.291Z,50.06
2023-02-05T09:20:58.401Z,50.01
2023-02-05T09:21:58.532Z,50.00
2023-02-05T09:22:58.638Z,49.89
2023-02-05T09:23:58.870Z,49.39
2023-02-05T09:24:58.875Z,48.79
2023-02-05T09:25:58.999Z,49.25
2023-02-05T09:26:59.124Z,49.36
2023-02-05T09:27:59.294Z,49.20
2023-02-05T09:28:59.345Z,49.26
2023-02-05T09:29:59.453Z,48.86
2023-02-05T09:30:59.609Z,48.85
2023-02-05T09:31:59.661Z,48.57
2023-02-05T09:32:59.736Z,48.51
2023-02-05T09:33:59.817Z,47.80
2023-02-05T09:34:59.902Z,47.77
2023-02-05T09:36:00.004Z,47.77
2023-02-05T09:37:00.110Z,47.91
2023-02-05T09:38:00.199Z,47.90
2023-02-05T09:39:13.408Z,47.99
2023-02-05T09:40:19.911Z,47.87
2023-02-05T09:41:01.377Z,48.02
2023-02-05T09:42:00.423Z,47.98
2023-02-05T09:43:00.472Z,48.14
2023-02-05T09:44:00.523Z,48.02
2023-02-05T09:45:00.629Z,47.93
2023-02-05T09:46:00.617Z,48.91
2023-02-05T09:47:00.661Z,48.74
2023-02-05T09:48:00.720Z,48.35
2023-02-05T09:49:00.759Z,48.52
2023-02-05T09:50:00.814Z,48.32
2023-02-05T09:51:00.862Z,48.02
2023-02-05T09:52:00.906Z,47.62
2023-02-05T09:53:00.928Z,47.11
2023-02-05T09:54:00.967Z,47.08
2023-02-05T09:55:01.008Z,47.05
2023-02-05T09:56:01.055Z,47.18
2023-02-05T09:57:01.085Z,47.33
2023-02-05T09:58:01.133Z,47.13
2023-02-05T09:59:01.160Z,47.13
2023-02-05T10:00:01.194Z,46.85
2023-02-05T10:01:01.315Z,46.53
2023-02-05T10:02:01.271Z,46.71
2023-02-05T10:03:01.302Z,46.92
2023-02-05T10:04:01.375Z,47.15
2023-02-05T10:05:01.379Z,47.18
2023-02-05T10:06:01.413Z,47.71
2023-02-05T10:07:01.466Z,47.06
2023-02-05T10:08:01.528Z,47.03
2023-02-05T10:09:01.573Z,47.11
2023-02-05T10:10:01.630Z,47.11
2023-02-05T10:11:01.641Z,46.95
2023-02-05T10:12:01.661Z,46.97
2023-02-05T10:13:01.701Z,47.00
2023-02-05T10:14:01.726Z,47.31
2023-02-05T10:15:01.805Z,47.43
2023-02-05T10:16:01.877Z,47.39
2023-02-05T10:17:01.843Z,47.37
2023-02-05T10:18:01.857Z,47.46
2023-02-05T10:19:01.883Z,46.55
2023-02-05T10:20:01.919Z,47.42
2023-02-05T10:21:01.963Z,47.99
2023-02-05T10:22:01.993Z,48.56
2023-02-05T10:23:02.037Z,48.41
2023-02-05T10:24:02.086Z,48.57
2023-02-05T10:25:02.106Z,48.45
2023-02-05T10:26:02.177Z,48.52
2023-02-05T10:27:02.209Z,48.27
2023-02-05T10:28:02.310Z,47.93
2023-02-05T10:29:02.292Z,48.21
2023-02-05T10:30:02.364Z,48.29
2023-02-05T10:31:02.559Z,48.56
2023-02-05T10:32:02.545Z,48.56
2023-02-05T10:33:02.658Z,48.41
2023-02-05T10:34:02.780Z,48.16
2023-02-05T10:35:02.994Z,47.04
2023-02-05T10:36:03.213Z,46.48
2023-02-05T10:37:03.396Z,46.19
2023-02-05T10:38:04.696Z,46.30
2023-02-05T10:39:03.644Z,46.48
2023-02-05T10:40:03.684Z,46.31
2023-02-05T10:41:03.743Z,46.37
2023-02-05T10:42:03.791Z,46.56
2023-02-05T10:43:03.869Z,46.75
2023-02-05T10:44:03.933Z,46.84
2023-02-05T10:45:03.990Z,47.64
2023-02-05T10:46:04.031Z,47.98
2023-02-05T10:47:04.063Z,47.78
2023-02-05T10:48:04.102Z,48.37
2023-02-05T10:49:04.207Z,47.90
2023-02-05T11:19:08.268Z,45.34
2023-02-05T11:20:08.436Z,45.42
2023-02-05T11:21:08.606Z,46.09
2023-02-05T11:22:08.771Z,46.11
2023-02-05T11:23:08.949Z,45.92
2023-02-05T11:24:09.114Z,44.62
2023-02-05T11:25:09.301Z,44.64
2023-02-05T11:26:09.493Z,44.98
2023-02-05T11:27:09.674Z,45.32
2023-02-05T11:28:09.872Z,45.36
2023-02-05T11:29:10.022Z,45.35
2023-02-05T11:30:10.204Z,45.37
2023-02-05T11:31:10.409Z,45.15
2023-02-05T11:32:12.683Z,44.96
2023-02-05T11:33:10.528Z,45.32
2023-02-05T11:34:10.561Z,45.32
2023-02-05T11:35:10.561Z,45.28
2023-02-05T11:36:10.591Z,45.40
2023-02-05T11:37:10.611Z,45.08
2023-02-05T11:38:10.631Z,44.91
2023-02-05T11:39:10.794Z,44.93
2023-02-05T11:40:10.678Z,44.80
2023-02-05T11:41:10.706Z,44.67
2023-02-05T11:42:10.716Z,44.74
2023-02-05T11:43:10.741Z,44.39
2023-02-05T11:44:10.754Z,44.01
2023-02-05T11:45:10.785Z,44.31
2023-02-05T11:46:10.850Z,44.35
2023-02-05T11:47:10.821Z,45.97
2023-02-05T11:48:10.862Z,45.83
2023-02-05T11:49:10.880Z,46.25
2023-02-05T11:50:10.901Z,46.16
2023-02-05T11:51:10.925Z,46.38
2023-02-05T11:52:10.938Z,46.39
2023-02-05T11:53:10.956Z,45.57
2023-02-05T11:54:10.976Z,45.58
2023-02-05T11:55:10.989Z,45.36
2023-02-05T11:56:11.005Z,45.43
2023-02-05T11:57:11.026Z,46.08
2023-02-05T11:58:11.044Z,45.85
2023-02-05T11:59:11.071Z,45.62
2023-02-05T12:00:11.092Z,45.52
2023-02-05T12:01:11.119Z,45.19
2023-02-05T12:02:11.143Z,44.82
2023-02-05T12:03:11.171Z,43.90
2023-02-05T12:04:11.159Z,43.47
2023-02-05T12:05:11.167Z,43.48
2023-02-05T12:06:11.192Z,43.63
2023-02-05T12:07:11.208Z,43.26
2023-02-05T12:08:11.229Z,43.17
2023-02-05T12:09:11.263Z,42.90
2023-02-05T12:10:11.278Z,43.10
2023-02-05T12:11:11.318Z,42.95
2023-02-05T12:12:11.414Z,44.01
2023-02-05T12:13:11.500Z,43.77
2023-02-05T12:14:11.558Z,43.93
2023-02-05T12:15:11.621Z,43.82
2023-02-05T12:16:11.704Z,43.71
2023-02-05T12:17:11.727Z,43.83
2023-02-05T12:18:11.771Z,43.33
2023-02-05T12:19:11.827Z,43.00
2023-02-05T12:20:11.865Z,42.77
2023-02-05T12:21:11.895Z,43.16
2023-02-05T12:22:11.944Z,41.44
2023-02-05T12:23:12.019Z,41.17
2023-02-05T12:24:12.090Z,41.42
2023-02-05T12:25:12.133Z,41.97
2023-02-05T12:26:12.187Z,42.15
2023-02-05T12:27:12.234Z,42.37
2023-02-05T12:28:12.287Z,42.09
2023-02-05T12:29:12.291Z,41.43
2023-02-05T12:30:12.322Z,41.34
2023-02-05T12:31:12.457Z,41.69
2023-02-05T12:32:12.397Z,41.97
2023-02-05T12:33:12.423Z,41.62
2023-02-05T12:34:12.451Z,42.08
2023-02-05T12:35:12.471Z,42.09
2023-02-05T12:36:12.508Z,42.05
2023-02-05T12:37:12.530Z,41.71
2023-02-05T12:38:16.734Z,41.36
2023-02-05T12:39:13.561Z,41.46
2023-02-05T12:40:12.557Z,41.34
2023-02-05T12:41:12.571Z,41.18
2023-02-05T12:42:12.593Z,41.46
2023-02-05T12:43:12.589Z,41.87
2023-02-05T12:44:12.599Z,41.49
2023-02-05T12:45:12.638Z,41.67
2023-02-05T12:46:12.677Z,41.82
2023-02-05T12:47:12.649Z,41.23
2023-02-05T12:48:12.667Z,41.42
2023-02-05T12:49:12.688Z,41.15
2023-02-05T12:50:12.768Z,41.20
2023-02-05T12:51:12.709Z,40.78
2023-02-05T12:52:12.710Z,41.05
2023-02-05T12:53:12.738Z,40.97
2023-02-05T12:54:12.733Z,41.18
2023-02-05T12:55:12.749Z,40.95
2023-02-05T12:56:12.768Z,41.46
2023-02-05T12:57:12.774Z,41.01
2023-02-05T12:58:12.793Z,41.26
2023-02-05T12:59:12.803Z,41.36
2023-02-05T13:00:12.813Z,41.33
2023-02-05T13:01:12.859Z,41.50
2023-02-05T13:02:12.841Z,41.94
2023-02-05T13:03:12.854Z,41.72
2023-02-05T13:04:12.911Z,41.75
2023-02-05T13:05:12.891Z,41.93
2023-02-05T13:06:12.898Z,42.15
2023-02-05T13:07:12.904Z,42.43
2023-02-05T13:08:12.923Z,42.33
2023-02-05T13:09:12.940Z,42.81
2023-02-05T13:10:12.975Z,42.49
2023-02-05T13:11:12.961Z,42.41
2023-02-05T13:12:12.978Z,42.20
2023-02-05T13:13:12.975Z,42.34
2023-02-05T13:14:12.994Z,42.34
2023-02-05T13:15:13.003Z,42.35
2023-02-05T13:16:13.075Z,42.24
2023-02-05T13:17:13.028Z,42.35
2023-02-05T13:18:13.050Z,42.25
2023-02-05T13:19:13.068Z,42.37
2023-02-05T13:20:13.103Z,42.42
2023-02-05T13:21:13.133Z,42.39
2023-02-05T13:22:13.152Z,42.93
2023-02-05T13:23:13.159Z,42.55
2023-02-05T13:24:13.205Z,42.60
2023-02-05T13:25:13.256Z,42.33
2023-02-05T13:26:13.308Z,42.25
2023-02-05T13:27:13.368Z,42.47
2023-02-05T13:28:13.439Z,42.33
2023-02-05T13:29:13.489Z,42.28
2023-02-05T13:30:13.543Z,42.18
2023-02-05T13:31:13.649Z,42.47
2023-02-05T13:32:16.203Z,42.28
2023-02-05T13:33:13.670Z,42.33
2023-02-05T13:34:13.681Z,42.55
2023-02-05T13:35:13.692Z,42.56
2023-02-05T13:36:13.714Z,42.39
2023-02-05T13:37:13.718Z,42.25
2023-02-05T13:38:13.747Z,42.21
2023-02-05T13:39:13.743Z,42.32
2023-02-05T13:40:13.767Z,42.23
2023-02-05T13:41:13.795Z,42.17
2023-02-05T13:42:13.824Z,42.24
2023-02-05T13:43:13.823Z,42.37
2023-02-05T13:44:13.829Z,42.31
2023-02-05T13:45:13.851Z,42.16
2023-02-05T13:46:13.928Z,42.08
2023-02-05T13:47:13.862Z,42.19
2023-02-05T13:48:13.869Z,42.00
2023-02-05T13:49:13.874Z,42.07
2023-02-05T13:50:13.882Z,42.26
2023-02-05T13:51:13.903Z,42.27
2023-02-05T13:52:13.923Z,42.22
2023-02-05T13:53:13.920Z,42.07
2023-02-05T13:54:13.923Z,42.00
2023-02-05T13:55:13.930Z,41.81
2023-02-05T13:56:13.957Z,41.69
2023-02-05T13:57:13.936Z,41.84
2023-02-05T13:58:13.951Z,42.04
2023-02-05T13:59:13.946Z,42.16
2023-02-05T14:00:13.965Z,42.38
2023-02-05T14:01:14.249Z,42.34
2023-02-05T14:02:13.973Z,42.30
2023-02-05T14:03:14.041Z,42.08
2023-02-05T14:04:13.989Z,41.96
2023-02-05T14:05:13.989Z,41.92
2023-02-05T14:06:14.013Z,41.79
2023-02-05T14:07:14.011Z,41.93
2023-02-05T14:08:14.007Z,42.08
2023-02-05T14:09:14.025Z,41.26
2023-02-05T14:10:14.043Z,41.39
2023-02-05T14:11:14.046Z,41.28
2023-02-05T14:12:14.077Z,41.39
2023-02-05T14:13:14.086Z,41.35
2023-02-05T14:14:14.101Z,41.42
2023-02-05T14:15:14.120Z,41.50
2023-02-05T14:16:14.170Z,41.55
2023-02-05T14:17:14.165Z,41.69
2023-02-05T14:18:14.171Z,41.66
2023-02-05T14:19:14.189Z,42.20
2023-02-05T14:20:14.196Z,42.40
2023-02-05T14:21:14.214Z,42.57
2023-02-05T14:22:14.230Z,42.23
2023-02-05T14:23:14.242Z,41.70
2023-02-05T14:24:14.240Z,42.10
2023-02-05T14:25:14.265Z,42.39
2023-02-05T14:26:14.273Z,42.66
2023-02-05T14:27:14.285Z,42.47
2023-02-05T14:28:14.349Z,42.88
2023-02-05T14:29:14.299Z,42.79
2023-02-05T14:30:14.305Z,42.68
2023-02-05T14:31:14.387Z,42.56
2023-02-05T15:01:14.745Z,42.26
2023-02-05T15:03:14.739Z,42.99
2023-02-05T15:04:14.752Z,43.12
2023-02-05T15:05:14.858Z,42.86
2023-02-05T15:06:15.131Z,42.77
2023-02-05T15:07:15.311Z,43.00
2023-02-05T15:08:15.545Z,43.17
2023-02-05T15:09:15.687Z,43.21
2023-02-05T15:10:15.893Z,43.46
2023-02-05T15:11:16.079Z,43.61
2023-02-05T15:12:16.277Z,43.50
2023-02-05T15:13:16.466Z,43.68
2023-02-05T15:14:16.654Z,43.54
2023-02-05T15:15:16.846Z,43.55
2023-02-05T15:16:17.172Z,43.41
2023-02-05T15:17:17.222Z,43.50
2023-02-05T15:18:17.394Z,43.51
2023-02-05T15:19:17.595Z,43.45
2023-02-05T15:20:17.799Z,43.67
2023-02-05T15:21:18.003Z,43.65
2023-02-05T15:22:18.194Z,43.67
2023-02-05T15:23:18.407Z,43.62
2023-02-05T15:24:18.594Z,43.59
2023-02-05T15:25:18.778Z,43.64
2023-02-05T15:26:18.958Z,43.67
2023-02-05T15:27:19.137Z,43.60
2023-02-05T15:28:19.380Z,43.54
2023-02-05T15:29:19.630Z,43.35
2023-02-05T15:30:19.879Z,42.83
2023-02-05T15:31:20.110Z,42.96
2023-02-05T15:32:20.246Z,42.97
2023-02-05T15:33:20.455Z,43.05
2023-02-05T15:34:20.648Z,42.98
2023-02-05T15:35:20.850Z,42.65
2023-02-05T15:36:21.090Z,43.00
2023-02-05T15:37:21.306Z,43.24
2023-02-05T15:38:21.518Z,43.18
2023-02-05T15:39:21.728Z,43.25
2023-02-05T15:40:21.941Z,43.28
2023-02-05T15:41:22.151Z,42.77
2023-02-05T15:42:22.361Z,42.79
2023-02-05T15:43:22.521Z,42.83
2023-02-05T15:44:22.692Z,42.44
2023-02-05T15:45:22.867Z,42.98
2023-02-05T15:46:23.108Z,43.24
2023-02-05T15:47:23.282Z,43.28
2023-02-05T15:48:23.485Z,43.41
2023-02-05T15:49:23.667Z,43.25
2023-02-05T15:50:23.859Z,43.42
2023-02-05T15:51:24.040Z,43.53
2023-02-05T15:52:24.242Z,43.77
2023-02-05T15:53:24.432Z,44.00
2023-02-05T15:54:25.439Z,44.15
2023-02-05T15:55:24.445Z,44.35
2023-02-05T15:56:24.462Z,44.50
2023-02-05T15:57:24.474Z,44.44
2023-02-05T15:58:24.543Z,44.77
2023-02-05T15:59:25.046Z,44.74
2023-02-05T16:00:24.602Z,44.89
2023-02-05T16:01:24.560Z,45.30
2023-02-05T16:02:24.534Z,45.45
2023-02-05T16:03:24.547Z,45.35
2023-02-05T16:04:24.558Z,45.38
2023-02-05T16:05:24.570Z,45.43
2023-02-05T16:06:24.570Z,45.31
2023-02-05T16:07:24.591Z,45.15
2023-02-05T16:08:24.607Z,45.05
2023-02-05T16:09:24.620Z,45.20
2023-02-05T16:10:24.622Z,45.36
2023-02-05T16:11:24.640Z,45.07
2023-02-05T16:12:24.645Z,44.93
2023-02-05T16:13:24.664Z,44.92
2023-02-05T16:14:24.660Z,45.15
2023-02-05T16:15:24.659Z,45.61
2023-02-05T16:16:24.734Z,45.55
2023-02-05T16:17:24.692Z,46.02
2023-02-05T16:18:24.732Z,45.51
2023-02-05T16:19:24.711Z,45.71
2023-02-05T16:20:24.728Z,45.91
2023-02-05T16:21:24.741Z,45.83
2023-02-05T16:22:24.752Z,45.61
2023-02-05T16:23:24.788Z,45.58
2023-02-05T16:24:24.777Z,45.66
2023-02-05T16:25:24.796Z,44.92
2023-02-05T16:26:24.804Z,45.01
2023-02-05T16:27:24.814Z,44.85
2023-02-05T16:28:24.835Z,44.86
2023-02-05T16:29:28.097Z,44.95
2023-02-05T16:30:24.926Z,44.83
2023-02-05T16:31:24.897Z,44.98
2023-02-05T16:32:24.884Z,44.99
2023-02-05T16:33:24.902Z,45.00
2023-02-05T16:34:24.920Z,45.28
2023-02-05T16:35:24.918Z,45.44
2023-02-05T16:36:24.965Z,45.35
2023-02-05T16:37:24.998Z,45.28
2023-02-05T16:38:24.959Z,45.54
2023-02-05T16:39:24.979Z,45.19
2023-02-05T16:40:24.994Z,45.10
2023-02-05T16:41:25.049Z,45.14
2023-02-05T16:42:25.067Z,45.11
2023-02-05T16:43:25.091Z,44.87
2023-02-05T16:44:25.098Z,44.71
2023-02-05T16:45:25.164Z,44.78
2023-02-05T16:46:25.126Z,44.87
2023-02-05T16:47:25.138Z,45.15
2023-02-05T16:48:25.167Z,45.34
2023-02-05T16:49:25.177Z,45.56
2023-02-05T16:50:25.181Z,45.68
2023-02-05T16:51:25.200Z,45.70
2023-02-05T16:52:25.206Z,45.73
2023-02-05T16:53:26.671Z,45.57
2023-02-05T16:54:25.250Z,45.61
2023-02-05T16:55:25.239Z,45.77
2023-02-05T16:56:25.252Z,45.70
2023-02-05T16:57:25.261Z,45.74
2023-02-05T16:58:25.264Z,45.77
2023-02-05T16:59:25.301Z,45.47
2023-02-05T17:00:25.303Z,45.45
2023-02-05T17:01:25.310Z,45.77
2023-02-05T17:02:25.318Z,45.91
2023-02-05T17:03:25.343Z,46.00
2023-02-05T17:04:25.351Z,46.06
2023-02-05T17:05:25.362Z,46.05
2023-02-05T17:06:25.381Z,46.00
2023-02-05T17:07:25.391Z,45.93
2023-02-05T17:08:25.420Z,46.12
2023-02-05T17:09:25.446Z,46.39
2023-02-05T17:10:25.451Z,46.68
2023-02-05T17:11:25.479Z,46.32
2023-02-05T17:12:25.488Z,46.28
2023-02-05T17:13:25.499Z,46.40
2023-02-05T17:14:25.531Z,46.41
2023-02-05T17:15:25.535Z,46.35
2023-02-05T17:16:25.579Z,46.39
2023-02-05T17:17:25.587Z,47.20
2023-02-05T17:18:25.608Z,47.12
2023-02-05T17:19:25.668Z,47.42
2023-02-05T17:20:25.684Z,47.23
2023-02-05T17:21:25.719Z,47.34
2023-02-05T17:22:25.761Z,48.90
2023-02-05T17:23:25.787Z,48.39
2023-02-05T17:24:25.830Z,49.28
2023-02-05T17:25:25.852Z,49.43
2023-02-05T17:26:26.028Z,49.09
2023-02-05T17:27:25.958Z,49.24
2023-02-05T17:28:26.017Z,49.27
2023-02-05T17:29:26.084Z,49.53
2023-02-05T17:30:26.159Z,49.68
2023-02-05T17:31:26.220Z,49.81
2023-02-05T17:32:26.241Z,49.87
2023-02-05T17:33:26.301Z,49.79
2023-02-05T17:34:26.349Z,49.90
2023-02-05T17:35:26.448Z,49.90
2023-02-05T17:36:26.512Z,49.82
2023-02-05T17:37:26.546Z,49.92
2023-02-05T17:38:26.602Z,50.18
2023-02-05T17:39:26.667Z,50.43
2023-02-05T17:40:27.700Z,50.39
2023-02-05T17:41:26.719Z,50.47
2023-02-05T17:42:26.744Z,50.82
2023-02-05T17:43:26.758Z,50.74
2023-02-05T17:44:26.780Z,50.81
2023-02-05T17:45:26.795Z,51.18
2023-02-05T17:46:26.815Z,51.17
2023-02-05T17:47:26.844Z,51.46
2023-02-05T17:48:26.861Z,51.49
2023-02-05T17:49:26.890Z,51.46
2023-02-05T17:50:26.896Z,51.51
2023-02-05T17:51:26.915Z,51.61
2023-02-05T17:52:26.965Z,51.68
2023-02-05T17:53:27.032Z,51.73
2023-02-05T17:54:27.112Z,51.67
2023-02-05T17:55:27.209Z,52.15
2023-02-05T17:56:27.263Z,52.22
2023-02-05T17:57:27.338Z,52.27
2023-02-05T17:58:27.413Z,52.33
2023-02-05T17:59:27.537Z,52.16
2023-02-05T18:00:27.579Z,52.34
2023-02-05T18:01:27.663Z,52.39
2023-02-05T18:02:27.769Z,52.56
2023-02-05T18:03:27.786Z,52.98
2023-02-05T18:04:27.838Z,52.73
2023-02-05T18:05:27.940Z,52.72
2023-02-05T18:06:27.989Z,52.79
2023-02-05T18:07:28.068Z,53.00
2023-02-05T18:08:28.135Z,52.90
2023-02-05T18:09:28.241Z,53.03
2023-02-05T18:10:28.285Z,52.97
2023-02-05T18:11:28.353Z,52.95
2023-02-05T18:12:28.437Z,53.31
2023-02-05T18:13:28.494Z,53.17
2023-02-05T18:14:28.576Z,53.18
2023-02-05T18:15:28.659Z,52.96
2023-02-05T18:16:28.757Z,53.02
2023-02-05T18:17:28.807Z,53.00
2023-02-05T18:18:28.874Z,53.18
2023-02-05T18:19:28.952Z,53.29
2023-02-05T18:20:29.032Z,53.31
2023-02-05T18:21:29.084Z,53.32
2023-02-05T18:22:29.169Z,53.25
2023-02-05T18:23:29.455Z,53.41
2023-02-05T18:24:29.331Z,53.34
2023-02-05T18:25:29.415Z,53.47
2023-02-05T18:26:29.493Z,53.55
2023-02-05T18:27:29.594Z,53.32
2023-02-05T18:28:29.672Z,53.34
2023-02-05T18:29:29.746Z,53.18
2023-02-05T18:30:29.931Z,53.25
2023-02-05T18:31:30.113Z,53.32
2023-02-05T18:32:30.030Z,53.45
2023-02-05T18:33:30.080Z,53.69
2023-02-05T18:34:30.170Z,53.98
2023-02-05T18:35:30.257Z,53.78
2023-02-05T18:36:30.357Z,54.15
2023-02-05T18:37:30.422Z,54.40
2023-02-05T18:38:30.495Z,54.29
2023-02-05T18:39:30.592Z,54.48
2023-02-05T18:40:30.674Z,54.43
2023-02-05T18:41:30.763Z,54.21
2023-02-05T18:42:30.852Z,54.31
2023-02-05T18:43:30.973Z,54.33
2023-02-05T18:44:31.066Z,54.48
2023-02-05T18:45:31.146Z,54.68
2023-02-05T18:46:31.289Z,54.62
2023-02-05T18:47:31.347Z,54.75
2023-02-05T18:48:31.438Z,54.57
2023-02-05T18:49:31.517Z,54.59
2023-02-05T18:50:31.619Z,54.97
2023-02-05T18:51:31.717Z,54.97
2023-02-05T18:52:31.808Z,54.99
2023-02-05T18:53:31.884Z,55.90
2023-02-05T18:54:31.979Z,55.85
2023-02-05T18:55:32.060Z,55.57
2023-02-05T18:56:32.163Z,55.51
2023-02-05T18:57:32.240Z,55.58
2023-02-05T18:58:32.313Z,55.49
2023-02-05T18:59:32.393Z,55.62
2023-02-05T19:00:32.625Z,55.60
2023-02-05T19:01:32.880Z,55.45
2023-02-05T19:02:34.878Z,55.42
2023-02-05T19:03:32.864Z,55.40
2023-02-05T19:04:32.983Z,55.31
2023-02-05T19:05:33.018Z,55.32
2023-02-05T19:06:33.138Z,55.41
2023-02-05T19:07:33.212Z,55.47
2023-02-05T19:08:33.299Z,55.38
2023-02-05T19:09:33.389Z,55.34
2023-02-05T19:10:33.869Z,55.36
2023-02-05T19:11:33.574Z,55.41
2023-02-05T19:12:33.665Z,55.47
2023-02-05T19:13:34.090Z,55.58
2023-02-05T19:14:33.831Z,55.73
2023-02-05T19:15:34.924Z,55.56
2023-02-05T19:16:33.909Z,55.56
2023-02-05T19:17:33.906Z,55.50
2023-02-05T19:18:33.928Z,55.70
2023-02-05T19:19:34.028Z,55.73
2023-02-05T19:20:34.277Z,55.56
2023-02-05T19:21:34.031Z,55.73
2023-02-05T19:22:34.054Z,55.79
2023-02-05T19:23:34.092Z,56.24
2023-02-05T19:24:34.116Z,56.61
2023-02-05T19:25:34.191Z,56.62
2023-02-05T19:26:34.271Z,56.53
2023-02-05T19:27:34.349Z,56.54
2023-02-05T19:28:34.449Z,56.45
2023-02-05T19:29:34.605Z,56.34
2023-02-05T19:30:34.932Z,56.33
2023-02-05T19:31:34.676Z,56.53
2023-02-05T19:32:34.730Z,56.62
2023-02-05T19:33:34.822Z,57.04
2023-02-05T19:34:34.895Z,56.86
2023-02-05T19:35:34.973Z,56.90
2023-02-05T19:36:35.074Z,56.64
2023-02-05T19:37:35.172Z,56.51
2023-02-05T19:38:35.269Z,56.56
2023-02-05T19:39:35.352Z,56.52
2023-02-05T19:40:35.657Z,56.82
2023-02-05T19:41:35.525Z,56.96
2023-02-05T19:42:35.645Z,56.96
2023-02-05T19:43:35.718Z,56.75
2023-02-05T19:44:35.742Z,56.70
2023-02-05T19:45:35.776Z,56.69
2023-02-05T19:46:35.898Z,56.92
2023-02-05T19:47:35.901Z,56.95
2023-02-05T19:48:36.084Z,57.86
2023-02-05T19:49:36.069Z,58.47
2023-02-05T19:50:36.562Z,58.10
2023-02-05T19:51:36.193Z,58.60
2023-02-05T19:52:36.268Z,57.98
2023-02-05T19:53:36.375Z,57.90
2023-02-05T19:54:37.354Z,57.90
2023-02-05T19:55:36.573Z,57.62
2023-02-05T19:56:36.674Z,57.72
2023-02-05T19:57:36.751Z,57.55
2023-02-05T19:58:36.836Z,58.00
2023-02-05T19:59:37.016Z,57.72
2023-02-05T20:00:37.432Z,57.55
2023-02-05T20:01:37.468Z,57.63
2023-02-05T20:04:38.111Z,57.65
2023-02-05T20:05:38.341Z,57.30